Time;durP1;ratioP1;P1;durP2;ratioP2;P2;SDS_P1;SDS_P2;PMS_P1;PMS_P2;Temp;Humidity;BMP_temperature;BMP_pressure;BME280_temperature;BME280_humidity;BME280_pressure;Samples;Min_cycle;Max_cycle;Signal;HPM_P1;HPM_P2
2021/07/01 00:00:51;;;;;;;21.73;19.80;;;;;;;-144.27;100.00;69759.91;2089762;28;20230;-76
2021/07/01 00:01:57;;;;;;;22.33;20.20;;;;;;;-144.27;100.00;69759.91;2088478;28;20453;-76
2021/07/01 00:02:58;;;;;;;21.83;20.00;;;;;;;-144.27;100.00;69759.91;2081613;28;20454;-76
2021/07/01 00:04:00;;;;;;;23.37;21.23;;;;;;;-144.27;100.00;69759.91;2080816;28;20473;-75
2021/07/01 00:05:00;;;;;;;23.10;21.10;;;;;;;-144.27;100.00;69759.91;2080780;28;20317;-76
2021/07/01 00:06:02;;;;;;;22.93;21.03;;;;;;;-144.27;100.00;69759.91;2088943;28;20491;-76
2021/07/01 00:07:03;;;;;;;23.03;21.00;;;;;;;-144.27;100.00;69759.91;2089654;28;20219;-77
2021/07/01 00:08:05;;;;;;;23.57;21.63;;;;;;;-144.27;100.00;69759.91;2088966;28;20544;-76
2021/07/01 00:09:07;;;;;;;23.00;20.90;;;;;;;-144.27;100.00;69759.91;2088977;28;20446;-76
2021/07/01 00:10:11;;;;;;;22.77;20.87;;;;;;;-144.27;100.00;69759.91;2089243;28;20449;-76
2021/07/01 00:11:11;;;;;;;21.97;20.10;;;;;;;-144.27;100.00;69759.91;2088822;28;20503;-76
2021/07/01 00:12:13;;;;;;;22.37;20.57;;;;;;;-144.27;100.00;69759.91;2080712;28;20443;-76
2021/07/01 00:13:14;;;;;;;21.93;20.03;;;;;;;-144.27;100.00;69759.91;2088968;28;20233;-76
2021/07/01 00:14:17;;;;;;;22.97;20.87;;;;;;;-144.27;100.00;69759.91;2089776;28;20434;-76
2021/07/01 00:15:20;;;;;;;22.60;20.67;;;;;;;-144.27;100.00;69759.91;2089705;28;20227;-76
2021/07/01 00:16:23;;;;;;;22.63;20.83;;;;;;;-144.27;100.00;69759.91;2089712;28;20912;-76
2021/07/01 00:17:24;;;;;;;23.27;21.17;;;;;;;-144.27;100.00;69759.91;2081956;28;20455;-75
2021/07/01 00:18:26;;;;;;;23.67;21.40;;;;;;;-144.27;100.00;69759.91;2080605;28;20453;-76
2021/07/01 00:19:27;;;;;;;22.90;20.87;;;;;;;-144.27;100.00;69759.91;2080749;28;20734;-76
2021/07/01 00:20:29;;;;;;;27.93;21.87;;;;;;;-144.27;100.00;69759.91;2080794;28;20909;-76
2021/07/01 00:21:30;;;;;;;23.50;21.40;;;;;;;-144.27;100.00;69759.91;2080341;28;20302;-76
2021/07/01 00:22:31;;;;;;;23.43;21.10;;;;;;;-144.27;100.00;69759.91;2080689;28;20439;-75
2021/07/01 00:23:32;;;;;;;23.37;21.10;;;;;;;-144.27;100.00;69759.91;2081304;28;20477;-76
2021/07/01 00:24:34;;;;;;;23.07;20.87;;;;;;;-144.27;100.00;69759.91;2081217;28;20453;-76
2021/07/01 00:25:35;;;;;;;23.30;21.27;;;;;;;-144.27;100.00;69759.91;2081425;28;20230;-76
2021/07/01 00:26:37;;;;;;;23.43;21.03;;;;;;;-144.27;100.00;69759.91;2080694;28;20474;-75
2021/07/01 00:27:37;;;;;;;23.67;21.63;;;;;;;-144.27;100.00;69759.91;2086661;28;20734;-77
2021/07/01 00:28:39;;;;;;;23.17;21.07;;;;;;;-144.27;100.00;69759.91;2088776;28;20445;-76
2021/07/01 00:29:40;;;;;;;23.60;21.20;;;;;;;-144.27;100.00;69759.91;2088782;28;20258;-76
2021/07/01 00:30:42;;;;;;;22.57;20.50;;;;;;;-144.27;100.00;69759.91;2088724;28;20465;-76
2021/07/01 00:31:44;;;;;;;22.73;20.63;;;;;;;-144.27;100.00;69759.91;2088745;28;20289;-76
2021/07/01 00:32:46;;;;;;;22.60;20.53;;;;;;;-144.27;100.00;69759.91;2089039;28;20430;-76
2021/07/01 00:33:46;;;;;;;23.30;21.10;;;;;;;-144.27;100.00;69759.91;2088584;28;20489;-76
2021/07/01 00:34:48;;;;;;;22.80;20.83;;;;;;;-144.27;100.00;69759.91;2080862;28;20446;-76
2021/07/01 00:35:49;;;;;;;21.87;20.17;;;;;;;-144.27;100.00;69759.91;2080613;28;20234;-76
2021/07/01 00:36:51;;;;;;;24.87;21.53;;;;;;;-144.27;100.00;69759.91;2080595;28;20550;-76
2021/07/01 00:37:51;;;;;;;22.77;20.70;;;;;;;-144.27;100.00;69759.91;2088700;28;20268;-77
2021/07/01 00:38:53;;;;;;;24.13;22.00;;;;;;;-144.27;100.00;69759.91;2088357;28;20469;-76
2021/07/01 00:39:54;;;;;;;23.20;20.97;;;;;;;-144.27;100.00;69759.91;2088667;28;20231;-76
2021/07/01 00:40:57;;;;;;;22.60;20.60;;;;;;;-144.27;100.00;69759.91;2088595;28;20652;-76
2021/07/01 00:41:57;;;;;;;21.67;19.90;;;;;;;-144.27;100.00;69759.91;2088616;28;20448;-76
2021/07/01 00:42:59;;;;;;;22.10;20.10;;;;;;;-144.27;100.00;69759.91;2088701;28;20534;-76
2021/07/01 00:44:00;;;;;;;22.27;20.37;;;;;;;-144.27;100.00;69759.91;2088557;28;20221;-76
2021/07/01 00:45:02;;;;;;;22.93;20.60;;;;;;;-144.27;100.00;69759.91;2080430;28;20525;-76
2021/07/01 00:46:02;;;;;;;22.10;20.03;;;;;;;-144.27;100.00;69759.91;2088379;28;20779;-76
2021/07/01 00:47:06;;;;;;;22.37;20.40;;;;;;;-144.27;100.00;69759.91;2080385;28;20842;-77
2021/07/01 00:48:07;;;;;;;22.03;20.07;;;;;;;-144.27;100.00;69759.91;2080141;28;20747;-76
2021/07/01 00:49:09;;;;;;;22.03;20.13;;;;;;;-144.27;100.00;69759.91;2080426;28;20880;-76
2021/07/01 00:50:11;;;;;;;23.67;21.50;;;;;;;-144.27;100.00;69759.91;2088825;28;20484;-76
2021/07/01 00:51:13;;;;;;;22.13;20.20;;;;;;;-144.27;100.00;69759.91;2088622;28;20940;-76
2021/07/01 00:52:14;;;;;;;22.67;20.67;;;;;;;-144.27;100.00;69759.91;2080452;28;20461;-76
2021/07/01 00:53:15;;;;;;;22.33;20.30;;;;;;;-144.27;100.00;69759.91;2080223;28;20455;-76
2021/07/01 00:54:17;;;;;;;23.03;20.77;;;;;;;-144.27;100.00;69759.91;2088799;28;20579;-76
2021/07/01 00:55:18;;;;;;;22.07;20.27;;;;;;;-144.27;100.00;69759.91;2088542;28;20446;-76
2021/07/01 00:56:19;;;;;;;23.60;21.17;;;;;;;-144.27;100.00;69759.91;2080419;28;20541;-76
2021/07/01 00:57:22;;;;;;;23.23;21.23;;;;;;;-144.27;100.00;69759.91;2088737;28;20500;-76
2021/07/01 00:58:23;;;;;;;22.47;20.60;;;;;;;-144.27;100.00;69759.91;2079857;28;20807;-76
2021/07/01 00:59:25;;;;;;;22.43;20.67;;;;;;;-144.27;100.00;69759.91;2088374;28;20477;-75
2021/07/01 01:00:38;;;;;;;22.93;20.80;;;;;;;-144.27;100.00;69759.91;2080410;28;20655;-76
2021/07/01 01:01:41;;;;;;;22.10;20.27;;;;;;;-144.27;100.00;69759.91;2081611;28;20454;-76
2021/07/01 01:02:43;;;;;;;22.87;20.53;;;;;;;-144.27;100.00;69759.91;2080407;28;20486;-76
2021/07/01 01:03:49;;;;;;;22.60;20.70;;;;;;;-144.27;100.00;69759.91;2088652;28;20460;-75
2021/07/01 01:04:50;;;;;;;22.33;20.47;;;;;;;-144.27;100.00;69759.91;2088713;28;20972;-76
2021/07/01 01:05:52;;;;;;;21.80;19.97;;;;;;;-144.27;100.00;69759.91;2088487;28;20473;-76
2021/07/01 01:06:53;;;;;;;22.87;20.67;;;;;;;-144.27;100.00;69759.91;2079965;28;20465;-76
2021/07/01 01:07:55;;;;;;;22.13;20.23;;;;;;;-144.27;100.00;69759.91;2080143;28;21011;-76
2021/07/01 01:08:56;;;;;;;22.03;20.10;;;;;;;-144.27;100.00;69759.91;2080437;28;20473;-76
2021/07/01 01:09:58;;;;;;;22.17;20.37;;;;;;;-144.27;100.00;69759.91;2080289;28;20537;-76
2021/07/01 01:10:59;;;;;;;21.37;19.67;;;;;;;-144.27;100.00;69759.91;2080111;28;20525;-76
2021/07/01 01:12:20;;;;;;;22.30;20.40;;;;;;;-144.27;100.00;69759.91;2082365;28;20466;-76
2021/07/01 01:13:25;;;;;;;22.57;20.60;;;;;;;-144.27;100.00;69759.91;2080385;28;20454;-76
2021/07/01 01:15:02;;;;;;;22.10;20.07;;;;;;;-144.27;100.00;69759.91;2084364;28;20448;-76
2021/07/01 01:16:04;;;;;;;21.77;19.90;;;;;;;-144.27;100.00;69759.91;2088097;28;21006;-76
2021/07/01 01:17:05;;;;;;;21.37;19.63;;;;;;;-144.27;100.00;69759.91;2079874;28;20454;-76
2021/07/01 01:18:08;;;;;;;21.47;19.67;;;;;;;-144.27;100.00;69759.91;2079944;28;20446;-76
2021/07/01 01:19:10;;;;;;;22.30;19.97;;;;;;;-144.27;100.00;69759.91;2080113;28;20481;-76
2021/07/01 01:20:13;;;;;;;22.03;20.03;;;;;;;-144.27;100.00;69759.91;2088336;28;20485;-76
2021/07/01 01:21:24;;;;;;;21.67;20.07;;;;;;;-144.27;100.00;69759.91;2089087;28;20531;-75
2021/07/01 01:22:26;;;;;;;22.10;19.70;;;;;;;-144.27;100.00;69759.91;2088657;28;20449;-76
2021/07/01 01:23:34;;;;;;;22.03;20.23;;;;;;;-144.27;100.00;69759.91;2088360;28;20449;-75
2021/07/01 01:24:35;;;;;;;21.93;19.97;;;;;;;-144.27;100.00;69759.91;2080171;28;20455;-75
2021/07/01 01:25:37;;;;;;;21.77;19.97;;;;;;;-144.27;100.00;69759.91;2088498;28;20495;-75
2021/07/01 01:26:37;;;;;;;21.17;19.47;;;;;;;-144.27;100.00;69759.91;2087854;28;20688;-75
2021/07/01 01:27:39;;;;;;;20.97;19.27;;;;;;;-144.27;100.00;69759.91;2079956;28;20885;-75
2021/07/01 01:28:40;;;;;;;21.97;20.17;;;;;;;-144.27;100.00;69759.91;2088196;28;20669;-78
2021/07/01 01:29:44;;;;;;;21.90;20.10;;;;;;;-144.27;100.00;69759.91;2088275;28;20828;-76
2021/07/01 01:30:45;;;;;;;21.90;19.90;;;;;;;-144.27;100.00;69759.91;2088374;28;20936;-76
2021/07/01 01:31:47;;;;;;;22.03;20.13;;;;;;;-144.27;100.00;69759.91;2088468;28;20472;-76
2021/07/01 01:32:48;;;;;;;22.47;20.67;;;;;;;-144.27;100.00;69759.91;2088259;28;20478;-77
2021/07/01 01:33:52;;;;;;;22.40;20.50;;;;;;;-144.27;100.00;69759.91;2088432;28;20445;-76
2021/07/01 01:34:52;;;;;;;21.57;19.77;;;;;;;-144.27;100.00;69759.91;2087679;28;20219;-76
2021/07/01 01:35:54;;;;;;;22.10;20.30;;;;;;;-144.27;100.00;69759.91;2088279;28;20469;-75
2021/07/01 01:36:55;;;;;;;21.60;19.53;;;;;;;-144.27;100.00;69759.91;2088203;28;20222;-75
2021/07/01 01:37:59;;;;;;;22.10;20.23;;;;;;;-144.27;100.00;69759.91;2080056;28;20470;-75
2021/07/01 01:39:00;;;;;;;23.00;21.00;;;;;;;-144.27;100.00;69759.91;2088156;28;20504;-75
2021/07/01 01:40:22;;;;;;;22.53;20.30;;;;;;;-144.27;100.00;69759.91;2087775;28;20461;-75
2021/07/01 01:41:23;;;;;;;23.13;20.97;;;;;;;-144.27;100.00;69759.91;2087826;28;20962;-75
2021/07/01 01:42:24;;;;;;;22.53;20.50;;;;;;;-144.27;100.00;69759.91;2079720;28;20829;-76
2021/07/01 01:43:25;;;;;;;22.40;20.43;;;;;;;-144.27;100.00;69759.91;2080037;28;20231;-75
2021/07/01 01:44:27;;;;;;;22.70;20.60;;;;;;;-144.27;100.00;69759.91;2088301;28;20457;-76
2021/07/01 01:45:28;;;;;;;22.50;20.40;;;;;;;-144.27;100.00;69759.91;2088072;28;20575;-75
2021/07/01 01:46:35;;;;;;;22.53;20.80;;;;;;;-144.27;100.00;69759.91;2088089;28;20940;-75
2021/07/01 01:47:36;;;;;;;22.97;20.93;;;;;;;-144.27;100.00;69759.91;2080744;28;20992;-76
2021/07/01 01:48:38;;;;;;;23.50;20.70;;;;;;;-144.27;100.00;69759.91;2079590;28;20860;-75
2021/07/01 01:49:39;;;;;;;22.50;20.53;;;;;;;-144.27;100.00;69759.91;2079930;28;20647;-76
2021/07/01 01:50:42;;;;;;;22.63;20.43;;;;;;;-144.27;100.00;69759.91;2079456;28;20458;-75
2021/07/01 01:51:43;;;;;;;23.43;21.53;;;;;;;-144.27;100.00;69759.91;2080054;28;20677;-76
2021/07/01 01:52:45;;;;;;;22.90;21.00;;;;;;;-144.27;100.00;69759.91;2088148;28;20814;-76
2021/07/01 01:53:47;;;;;;;22.87;20.87;;;;;;;-144.27;100.00;69759.91;2088113;28;20704;-76
2021/07/01 01:54:49;;;;;;;24.10;21.80;;;;;;;-144.27;100.00;69759.91;2079876;28;20847;-75
2021/07/01 01:55:50;;;;;;;22.97;20.80;;;;;;;-144.27;100.00;69759.91;2088275;28;20461;-75
2021/07/01 01:56:52;;;;;;;22.93;21.13;;;;;;;-144.27;100.00;69759.91;2081580;28;20482;-75
2021/07/01 01:58:19;;;;;;;23.80;21.60;;;;;;;-144.27;100.00;69759.91;2081819;28;20268;-75
2021/07/01 01:59:41;;;;;;;23.23;21.23;;;;;;;-144.27;100.00;69759.91;2086299;28;20462;-75
2021/07/01 02:01:01;;;;;;;22.33;20.53;;;;;;;-144.27;100.00;69759.91;2081046;28;20451;-75
2021/07/01 02:02:02;;;;;;;23.77;21.80;;;;;;;-144.27;100.00;69759.91;2079851;28;20535;-75
2021/07/01 02:03:13;;;;;;;23.30;20.90;;;;;;;-144.27;100.00;69759.91;2074378;28;20809;-75
2021/07/01 02:04:29;;;;;;;22.57;20.43;;;;;;;-144.27;100.00;69759.91;2076235;28;20778;-75
2021/07/01 02:05:31;;;;;;;23.17;21.03;;;;;;;-144.27;100.00;69759.91;2072489;28;20470;-75
2021/07/01 02:06:33;;;;;;;23.23;20.93;;;;;;;-144.27;100.00;69759.91;2073604;28;20228;-75
2021/07/01 02:07:35;;;;;;;23.20;21.07;;;;;;;-144.27;100.00;69759.91;2079950;28;20469;-75
2021/07/01 02:08:40;;;;;;;23.10;21.20;;;;;;;-144.27;100.00;69759.91;2086206;28;20484;-76
2021/07/01 02:09:43;;;;;;;22.60;20.63;;;;;;;-144.27;100.00;69759.91;2088020;28;20806;-75
2021/07/01 02:10:44;;;;;;;23.57;21.57;;;;;;;-144.27;100.00;69759.91;2087913;28;20642;-75
2021/07/01 02:11:46;;;;;;;23.20;21.20;;;;;;;-144.27;100.00;69759.91;2087826;28;20445;-75
2021/07/01 02:12:51;;;;;;;23.10;21.00;;;;;;;-144.27;100.00;69759.91;2080308;28;20326;-75
2021/07/01 02:13:54;;;;;;;22.90;20.73;;;;;;;-144.27;100.00;69759.91;2079348;28;20461;-75
2021/07/01 02:15:21;;;;;;;23.27;21.17;;;;;;;-144.27;100.00;69759.91;2087812;28;20465;-75
2021/07/01 02:16:24;;;;;;;24.70;22.33;;;;;;;-144.27;100.00;69759.91;2087442;28;20827;-75
2021/07/01 02:17:27;;;;;;;25.60;22.83;;;;;;;-144.27;100.00;69759.91;2079767;28;20985;-76
2021/07/01 02:18:32;;;;;;;24.43;22.03;;;;;;;-144.27;100.00;69759.91;2080362;28;20835;-75
2021/07/01 02:19:34;;;;;;;24.93;22.47;;;;;;;-144.27;100.00;69759.91;2079678;28;20488;-74
2021/07/01 02:20:37;;;;;;;24.07;21.77;;;;;;;-144.27;100.00;69759.91;2079672;28;20469;-76
2021/07/01 02:21:39;;;;;;;23.60;21.53;;;;;;;-144.27;100.00;69759.91;2088029;28;20472;-76
2021/07/01 02:22:40;;;;;;;24.03;22.03;;;;;;;-144.27;100.00;69759.91;2087792;28;20295;-75
2021/07/01 02:23:42;;;;;;;24.63;22.50;;;;;;;-144.27;100.00;69759.91;2079034;28;20972;-74
2021/07/01 02:24:44;;;;;;;24.47;22.20;;;;;;;-144.27;100.00;69759.91;2079891;28;20462;-75
2021/07/01 02:25:46;;;;;;;22.63;20.83;;;;;;;-144.27;100.00;69759.91;2079825;28;20466;-75
2021/07/01 02:26:55;;;;;;;23.60;21.40;;;;;;;-144.27;100.00;69759.91;2087643;28;20493;-75
2021/07/01 02:27:57;;;;;;;23.87;21.77;;;;;;;-144.27;100.00;69759.91;2087918;28;20477;-75
2021/07/01 02:28:58;;;;;;;24.10;22.10;;;;;;;-144.27;100.00;69759.91;2079820;28;20803;-75
2021/07/01 02:30:10;;;;;;;24.53;22.53;;;;;;;-144.27;100.00;69759.91;2080117;28;20466;-75
2021/07/01 02:31:13;;;;;;;23.50;21.50;;;;;;;-144.27;100.00;69759.91;2087719;28;21122;-75
2021/07/01 02:32:15;;;;;;;24.27;22.03;;;;;;;-144.27;100.00;69759.91;2079777;28;20500;-74
2021/07/01 02:33:17;;;;;;;23.97;21.80;;;;;;;-144.27;100.00;69759.91;2079732;28;20921;-75
2021/07/01 02:34:19;;;;;;;23.60;21.53;;;;;;;-144.27;100.00;69759.91;2087796;28;20963;-75
2021/07/01 02:35:49;;;;;;;23.60;21.60;;;;;;;-144.27;100.00;69759.91;2087508;28;20550;-75
2021/07/01 02:37:13;;;;;;;24.57;22.47;;;;;;;-144.27;100.00;69759.91;2086900;28;20959;-75
2021/07/01 02:38:33;;;;;;;24.37;22.10;;;;;;;-144.27;100.00;69759.91;2080697;28;20442;-75
2021/07/01 02:39:46;;;;;;;23.50;21.50;;;;;;;-144.27;100.00;69759.91;2086276;28;20532;-75
2021/07/01 02:40:48;;;;;;;23.50;21.53;;;;;;;-144.27;100.00;69759.91;2080066;28;20540;-75
2021/07/01 02:41:49;;;;;;;23.07;21.13;;;;;;;-144.27;100.00;69759.91;2087830;28;20810;-75
2021/07/01 02:42:52;;;;;;;23.73;21.63;;;;;;;-144.27;100.00;69759.91;2079529;28;20512;-75
2021/07/01 02:43:53;;;;;;;23.50;21.47;;;;;;;-144.27;100.00;69759.91;2073236;28;21073;-75
2021/07/01 02:45:13;;;;;;;25.17;22.77;;;;;;;-144.27;100.00;69759.91;2086366;28;20936;-75
2021/07/01 02:46:30;;;;;;;25.70;23.07;;;;;;;-144.27;100.00;69759.91;2087407;28;20467;-76
2021/07/01 02:47:31;;;;;;;24.47;22.00;;;;;;;-144.27;100.00;69759.91;2087863;28;20838;-76
2021/07/01 02:48:32;;;;;;;24.60;22.50;;;;;;;-144.27;100.00;69759.91;2087785;28;20460;-75
2021/07/01 02:49:34;;;;;;;24.20;22.10;;;;;;;-144.27;100.00;69759.91;2087900;28;20532;-75
2021/07/01 02:50:46;;;;;;;23.73;21.73;;;;;;;-144.27;100.00;69759.91;2087587;28;20218;-75
2021/07/01 02:51:48;;;;;;;23.53;21.47;;;;;;;-144.27;100.00;69759.91;2079497;28;20458;-75
2021/07/01 02:52:49;;;;;;;24.33;21.97;;;;;;;-144.27;100.00;69759.91;2087826;28;20358;-75
2021/07/01 02:53:51;;;;;;;23.77;21.43;;;;;;;-144.27;100.00;69759.91;2087765;28;20899;-75
2021/07/01 02:54:54;;;;;;;24.03;21.97;;;;;;;-144.27;100.00;69759.91;2074905;28;20571;-75
2021/07/01 02:55:57;;;;;;;23.07;21.17;;;;;;;-144.27;100.00;69759.91;2081686;28;20462;-75
2021/07/01 02:56:58;;;;;;;23.97;21.77;;;;;;;-144.27;100.00;69759.91;2079494;28;20450;-75
2021/07/01 02:58:00;;;;;;;23.67;21.73;;;;;;;-144.27;100.00;69759.91;2079424;28;20447;-75
2021/07/01 02:59:01;;;;;;;24.50;22.27;;;;;;;-144.27;100.00;69759.91;2079503;28;20223;-75
2021/07/01 03:00:31;;;;;;;25.43;23.03;;;;;;;-144.27;100.00;69759.91;2086395;28;20528;-75
2021/07/01 03:01:32;;;;;;;24.20;22.10;;;;;;;-144.27;100.00;69759.91;2087861;28;21002;-75
2021/07/01 03:02:47;;;;;;;24.60;22.30;;;;;;;-144.27;100.00;69759.91;2080840;28;20453;-75
2021/07/01 03:03:54;;;;;;;24.50;22.20;;;;;;;-144.27;100.00;69759.91;2087386;28;21061;-76
2021/07/01 03:04:57;;;;;;;23.90;21.60;;;;;;;-144.27;100.00;69759.91;2079566;28;20486;-75
2021/07/01 03:06:00;;;;;;;24.67;22.23;;;;;;;-144.27;100.00;69759.91;2087552;28;20532;-75
2021/07/01 03:07:02;;;;;;;24.50;22.50;;;;;;;-144.27;100.00;69759.91;2079534;28;20527;-75
2021/07/01 03:08:04;;;;;;;24.43;22.23;;;;;;;-144.27;100.00;69759.91;2087681;28;20441;-75
2021/07/01 03:09:06;;;;;;;23.70;21.70;;;;;;;-144.27;100.00;69759.91;2087783;28;20459;-75
2021/07/01 03:10:10;;;;;;;24.97;22.77;;;;;;;-144.27;100.00;69759.91;2079129;28;20443;-75
2021/07/01 03:11:28;;;;;;;24.20;22.10;;;;;;;-144.27;100.00;69759.91;2075367;28;20463;-75
2021/07/01 03:12:31;;;;;;;26.10;22.43;;;;;;;-144.27;100.00;69759.91;2079968;28;20450;-75
2021/07/01 03:13:35;;;;;;;24.37;22.07;;;;;;;-144.27;100.00;69759.91;2071731;28;20466;-74
2021/07/01 03:14:41;;;;;;;24.23;22.03;;;;;;;-144.27;100.00;69759.91;2080965;28;20458;-75
2021/07/01 03:15:43;;;;;;;25.20;22.30;;;;;;;-144.27;100.00;69759.91;2071278;28;20534;-76
2021/07/01 03:16:45;;;;;;;24.73;22.30;;;;;;;-144.27;100.00;69759.91;2079636;28;20836;-75
2021/07/01 03:17:47;;;;;;;23.57;21.37;;;;;;;-144.27;100.00;69759.91;2082323;28;20465;-75
2021/07/01 03:18:49;;;;;;;31.63;21.60;;;;;;;-144.27;100.00;69759.91;2079529;28;20223;-75
2021/07/01 03:20:10;;;;;;;24.50;22.30;;;;;;;-144.27;100.00;69759.91;2080650;28;20553;-76
2021/07/01 03:21:46;;;;;;;24.67;22.33;;;;;;;-144.27;100.00;69759.91;2085744;28;20463;-75
2021/07/01 03:22:49;;;;;;;24.27;21.87;;;;;;;-144.27;100.00;69759.91;2079314;28;20988;-76
2021/07/01 03:23:50;;;;;;;24.20;21.90;;;;;;;-144.27;100.00;69759.91;2079274;28;21049;-76
2021/07/01 03:24:52;;;;;;;25.00;22.47;;;;;;;-144.27;100.00;69759.91;2079320;28;20841;-78
2021/07/01 03:25:54;;;;;;;24.77;22.47;;;;;;;-144.27;100.00;69759.91;2074783;28;20232;-77
2021/07/01 03:26:59;;;;;;;25.23;22.63;;;;;;;-144.27;100.00;69759.91;2071443;28;20493;-74
2021/07/01 03:28:00;;;;;;;24.97;22.67;;;;;;;-144.27;100.00;69759.91;2079296;28;20806;-79
2021/07/01 03:29:02;;;;;;;24.97;22.43;;;;;;;-144.27;100.00;69759.91;2071139;28;20505;-81
2021/07/01 03:30:04;;;;;;;26.20;22.80;;;;;;;-144.27;100.00;69759.91;2071216;28;20512;-76
2021/07/01 03:31:07;;;;;;;24.97;22.73;;;;;;;-144.27;100.00;69759.91;2079226;28;20579;-81
2021/07/01 03:32:09;;;;;;;24.23;22.03;;;;;;;-144.27;100.00;69759.91;2072933;28;20961;-79
2021/07/01 03:33:11;;;;;;;24.90;22.43;;;;;;;-144.27;100.00;69759.91;2071205;28;20811;-78
2021/07/01 03:34:13;;;;;;;24.53;22.30;;;;;;;-144.27;100.00;69759.91;2079405;28;20227;-79
2021/07/01 03:35:15;;;;;;;23.70;21.50;;;;;;;-144.27;100.00;69759.91;2083588;28;20497;-79
2021/07/01 03:36:36;;;;;;;24.60;22.47;;;;;;;-144.27;100.00;69759.91;2081032;28;20991;-78
2021/07/01 03:37:39;;;;;;;24.37;21.97;;;;;;;-144.27;100.00;69759.91;2087615;28;20449;-79
2021/07/01 03:39:02;;;;;;;24.43;22.07;;;;;;;-144.27;100.00;69759.91;2088803;28;20449;-81
2021/07/01 03:40:30;;;;;;;23.70;21.63;;;;;;;-144.27;100.00;69759.91;2087560;28;20489;-79
2021/07/01 03:41:33;;;;;;;25.03;22.50;;;;;;;-144.27;100.00;69759.91;2089927;28;20560;-78
2021/07/01 03:42:34;;;;;;;23.60;21.20;;;;;;;-144.27;100.00;69759.91;2089094;28;20483;-78
2021/07/01 03:43:40;;;;;;;23.23;21.23;;;;;;;-144.27;100.00;69759.91;2089112;28;20441;-78
2021/07/01 03:44:42;;;;;;;24.70;22.37;;;;;;;-144.27;100.00;69759.91;2081007;28;20468;-78
2021/07/01 03:45:43;;;;;;;24.53;22.20;;;;;;;-144.27;100.00;69759.91;2089005;28;20460;-79
2021/07/01 03:46:45;;;;;;;23.63;21.40;;;;;;;-144.27;100.00;69759.91;2089104;28;20527;-78
2021/07/01 03:47:46;;;;;;;23.07;21.03;;;;;;;-144.27;100.00;69759.91;2088944;28;20692;-79
2021/07/01 03:48:48;;;;;;;23.27;21.17;;;;;;;-144.27;100.00;69759.91;2089043;28;20837;-78
2021/07/01 03:50:09;;;;;;;23.40;21.53;;;;;;;-144.27;100.00;69759.91;2088585;28;20218;-79
2021/07/01 03:51:40;;;;;;;23.70;21.60;;;;;;;-144.27;100.00;69759.91;2080291;28;20461;-78
2021/07/01 03:53:04;;;;;;;22.90;20.90;;;;;;;-144.27;100.00;69759.91;2086279;28;20456;-81
2021/07/01 03:54:06;;;;;;;23.57;21.13;;;;;;;-144.27;100.00;69759.91;2089146;28;20550;-78
2021/07/01 03:55:07;;;;;;;22.80;20.77;;;;;;;-144.27;100.00;69759.91;2080542;28;20559;-77
2021/07/01 03:56:11;;;;;;;23.00;21.00;;;;;;;;;;2080815;28;20960;-78
2021/07/01 03:57:13;;;;;;;23.17;20.97;;;;;;;22.40;100.00;57707.53;2081169;28;20474;-79
2021/07/01 03:58:25;;;;;;;23.33;21.23;;;;;;;-144.27;100.00;69759.91;2081715;28;20971;-78
2021/07/01 03:59:39;;;;;;;24.33;22.07;;;;;;;-144.27;100.00;69759.91;2082018;28;20450;-78
2021/07/01 04:00:59;;;;;;;25.17;22.67;;;;;;;-144.27;100.00;69759.91;2081620;28;20462;-79
2021/07/01 04:02:00;;;;;;;24.97;22.70;;;;;;;-144.27;100.00;69759.91;2080633;28;20540;-79
2021/07/01 04:03:04;;;;;;;24.70;22.53;;;;;;;-144.27;100.00;69759.91;2080654;28;20461;-79
2021/07/01 04:04:25;;;;;;;26.30;23.70;;;;;;;-144.27;100.00;69759.91;2086642;28;20544;-78
2021/07/01 04:05:27;;;;;;;24.47;22.43;;;;;;;-144.27;100.00;69759.91;2088851;28;20459;-79
2021/07/01 04:06:31;;;;;;;25.93;23.43;;;;;;;-144.27;100.00;69759.91;2080837;28;20920;-79
2021/07/01 04:07:31;;;;;;;25.20;22.70;;;;;;;-144.27;100.00;69759.91;2080727;28;20466;-79
2021/07/01 04:08:33;;;;;;;24.47;22.37;;;;;;;-144.27;100.00;69759.91;2089061;28;20454;-79
2021/07/01 04:09:34;;;;;;;24.90;22.63;;;;;;;-144.27;100.00;69759.91;2088970;28;20222;-78
2021/07/01 04:11:04;;;;;;;25.33;23.17;;;;;;;-144.27;100.00;69759.91;2080762;28;20450;-78
2021/07/01 04:12:06;;;;;;;24.97;22.50;;;;;;;-144.27;100.00;69759.91;2080642;28;20974;-78
2021/07/01 04:13:15;;;;;;;23.30;21.37;;;;;;;-144.27;100.00;69759.91;2080063;28;20508;-79
2021/07/01 04:14:35;;;;;;;23.93;21.83;;;;;;;-144.27;100.00;69759.91;2080873;28;20454;-78
2021/07/01 04:15:56;;;;;;;24.20;22.07;;;;;;;-144.27;100.00;69759.91;2082384;28;20960;-79
2021/07/01 04:16:56;;;;;;;23.40;21.43;;;;;;;-144.27;100.00;69759.91;2081447;28;20448;-78
2021/07/01 04:18:21;;;;;;;24.20;22.20;;;;;;;-144.27;100.00;69759.91;2080029;28;20995;-79
2021/07/01 04:19:42;;;;;;;24.37;22.30;;;;;;;-144.27;100.00;69759.91;2088975;28;20465;-78
2021/07/01 04:21:02;;;;;;;24.53;22.43;;;;;;;-144.27;100.00;69759.91;2081581;28;20450;-78
2021/07/01 04:22:33;;;;;;;25.30;23.00;;;;;;;-144.27;100.00;69759.91;2079753;28;20590;-79
2021/07/01 04:23:53;;;;;;;24.20;22.20;;;;;;;-144.27;100.00;69759.91;2081496;28;20891;-78
2021/07/01 04:25:14;;;;;;;25.83;23.27;;;;;;;-144.27;100.00;69759.91;2082318;28;20450;-78
2021/07/01 04:26:18;;;;;;;24.43;22.17;;;;;;;-144.27;100.00;69759.91;2080423;28;20944;-78
2021/07/01 04:27:21;;;;;;;25.67;23.27;;;;;;;-144.27;100.00;69759.91;2072342;28;20447;-78
2021/07/01 04:28:23;;;;;;;25.40;22.97;;;;;;;-144.27;100.00;69759.91;2086163;28;20454;-79
2021/07/01 04:29:25;;;;;;;25.67;22.90;;;;;;;-144.27;100.00;69759.91;2088733;28;20995;-78
2021/07/01 04:30:28;;;;;;;27.70;23.50;;;;;;;-144.27;100.00;69759.91;2080800;28;20451;-79
2021/07/01 04:32:06;;;;;;;24.33;22.03;;;;;;;-144.27;100.00;69759.91;2088556;28;20947;-79
2021/07/01 04:33:07;;;;;;;26.53;24.03;;;;;;;-144.27;100.00;69759.91;2088442;28;20457;-79
2021/07/01 04:34:09;;;;;;;26.40;23.07;;;;;;;-144.27;100.00;69759.91;2080514;28;21014;-79
2021/07/01 04:35:10;;;;;;;26.47;23.63;;;;;;;;;;2088769;28;20280;-78
2021/07/01 04:36:12;;;;;;;26.50;23.80;;;;;;;;;;2080458;28;20450;-78
2021/07/01 04:37:12;;;;;;;26.80;23.63;;;;;;;;;;2088802;28;20591;-78
2021/07/01 04:38:23;;;;;;;26.00;23.40;;;;;;;;;;2088331;28;20540;-78
2021/07/01 04:39:23;;;;;;;27.03;24.43;;;;;;;;;;2088539;28;20457;-78
2021/07/01 04:40:42;;;;;;;27.20;24.60;;;;;;;;;;2082248;28;28082;-79
2021/07/01 04:41:43;;;;;;;26.87;24.50;;;;;;;;;;2080378;28;20477;-78
2021/07/01 04:42:45;;;;;;;27.57;24.67;;;;;;;;;;2088653;28;20445;-78
2021/07/01 04:43:47;;;;;;;27.03;24.30;;;;;;;;;;2088696;28;20272;-78
2021/07/01 04:44:50;;;;;;;27.07;24.47;;;;;;;;;;2080621;28;20450;-78
2021/07/01 04:45:54;;;;;;;26.70;24.10;;;;;;;;;;2076202;28;20585;-78
2021/07/01 04:46:55;;;;;;;27.77;25.00;;;;;;;;;;2072955;28;20460;-78
2021/07/01 04:47:56;;;;;;;27.90;25.07;;;;;;;;;;2082463;28;20234;-78
2021/07/01 04:48:59;;;;;;;26.83;24.33;;;;;;;;;;2075315;28;20526;-79
2021/07/01 04:50:02;;;;;;;28.13;25.33;;;;;;;;;;2080970;28;20985;-80
2021/07/01 04:51:27;;;;;;;27.07;24.47;;;;;;;;;;2079446;28;20461;-78
2021/07/01 04:52:46;;;;;;;28.07;25.20;;;;;;;;;;2088109;28;20437;-78
2021/07/01 04:54:06;;;;;;;27.83;24.97;;;;;;;;;;2080880;28;20458;-81
2021/07/01 04:55:25;;;;;;;28.33;24.53;;;;;;;;;;2081841;28;20873;-78
2021/07/01 04:56:50;;;;;;;27.50;24.90;;;;;;;;;;2088378;28;20442;-81
2021/07/01 04:57:53;;;;;;;27.47;24.63;;;;;;;;;;2087903;28;20462;-80